Impacts METAR Board INFO
IDs:

KAXN - Alexandria/Chandler, MN, US

Updated at: 1519 UTC 23 Oct 2017
Potential Impact None Slight Moderate High
Time23/03Z 23/04Z 23/05Z 23/06Z 23/07Z 23/08Z 23/09Z 23/10Z 23/11Z 23/12Z 23/13Z 23/14Z 23/15Z
VIS10 10 10 10 10 10 10 10 10 10 10 10 10
CIG75 80 100 100 90 90 70 -- -- -- -- -- --
CoverOVCBKNOVCOVCOVCBKNOVCCLRCLRFEWFEWSCTCLR
FltCatVFRVFRVFRVFRVFRVFRVFRVFRVFRVFRVFRVFRVFR
WX-----------RA--------------
WDir180190180190200230230270280280300300310
WSpd13 8 10 11 11 10 10 13 15 14 12 20 21
WGst-- -- -- -- -- -- -- 20 21 -- -- 30 31
Raw hourly METARs
KAXN 230253Z AUTO 18013KT 10SM FEW050 BKN075 OVC095 14/02 A2981 RMK AO2 SLP099 T01390017 58011
KAXN 230353Z AUTO 19008KT 10SM BKN080 12/03 A2980 RMK AO2 SLP096 T01220028
KAXN 230453Z AUTO 18010KT 10SM OVC100 13/02 A2976 RMK AO2 SLP082 T01280022
KAXN 230553Z AUTO 19011KT 10SM BKN100 OVC120 12/02 A2975 RMK AO2 SLP079 T01220017 10144 20117 401720044 57018
KAXN 230653Z AUTO 20011KT 10SM OVC090 12/02 A2974 RMK AO2 SLP074 T01220022
KAXN 230753Z AUTO 23010KT 10SM -RA SCT070 BKN090 11/04 A2974 RMK AO2 RAB47 SLP074 P0000 T01110039
KAXN 230853Z AUTO 23010KT 10SM FEW055 BKN070 OVC085 12/04 A2973 RMK AO2 RAE01 SLP069 P0000 60000 T01170044 58008
KAXN 230953Z AUTO 27013G20KT 10SM CLR 13/06 A2973 RMK AO2 SLP069 T01330056
KAXN 231053Z AUTO 28015G21KT 10SM CLR 12/06 A2975 RMK AO2 SLP076 T01220056
KAXN 231153Z AUTO 28014KT 10SM FEW060 11/05 A2978 RMK AO2 SLP088 60000 T01060050 10133 20106 53015
KAXN 231253Z AUTO 30012KT 10SM FEW070 10/04 A2979 RMK AO2 SLP094 T01000044
KAXN 231353Z AUTO 30020G30KT 10SM SCT090 11/03 A2979 RMK AO2 PK WND 30030/1346 SLP093 T01060028
KAXN 231453Z AUTO 31021G31KT 10SM CLR 10/03 A2981 RMK AO2 PK WND 31032/1443 SLP097 T01000028 51010